Аэропорт: Кокшетау. Кокшетау

ICAO: UACK

METAR:
Информация по данной станции не доступна
METAR:
2019-07-23 08:00:00
TAF UACK 230800Z 2309/2318 28005MPS 9999 SCT033CB BKN100 TEMPO 2309/2315 34008G13MPS -TSRA BKN015CB